createdAt,value
2018-03-08T00:00:03.096Z,12.50
2018-03-08T00:00:40.728Z,13.43
2018-03-08T00:01:12.374Z,12.93
2018-03-08T00:01:43.986Z,12.68
2018-03-08T00:02:15.614Z,12.80
2018-03-08T00:02:47.239Z,12.70
2018-03-08T00:03:18.876Z,12.48
2018-03-08T00:03:50.522Z,12.52
2018-03-08T00:04:22.184Z,12.10
2018-03-08T00:04:53.818Z,12.88
2018-03-08T00:05:25.454Z,11.95
2018-03-08T00:05:57.100Z,12.15
2018-03-08T00:06:28.742Z,11.98
2018-03-08T00:07:00.368Z,12.43
2018-03-08T00:07:32.024Z,12.18
2018-03-08T00:08:03.660Z,12.98
2018-03-08T00:08:35.296Z,13.00
2018-03-08T00:09:06.979Z,13.07
2018-03-08T00:09:38.587Z,13.13
2018-03-08T00:10:10.234Z,13.43
2018-03-08T00:10:41.869Z,14.48
2018-03-08T00:11:13.488Z,14.32
2018-03-08T00:11:45.112Z,14.38
2018-03-08T00:12:16.728Z,14.23
2018-03-08T00:12:48.349Z,15.45
2018-03-08T00:13:19.974Z,14.25
2018-03-08T00:13:51.602Z,14.40
2018-03-08T00:14:23.224Z,15.50
2018-03-08T00:14:54.870Z,15.10
2018-03-08T00:15:26.494Z,14.73
2018-03-08T00:15:58.134Z,15.23
2018-03-08T00:16:29.786Z,15.38
2018-03-08T00:17:01.394Z,15.82
2018-03-08T00:17:33.024Z,17.15
2018-03-08T00:18:04.656Z,16.35
2018-03-08T00:18:36.274Z,16.35
2018-03-08T00:19:07.921Z,16.23
2018-03-08T00:19:39.564Z,15.93
2018-03-08T00:20:11.216Z,16.42
2018-03-08T00:20:42.839Z,18.12
2018-03-08T00:21:14.482Z,19.00
2018-03-08T00:21:46.112Z,17.50
2018-03-08T00:22:17.770Z,18.35
2018-03-08T00:22:49.424Z,18.58
2018-03-08T00:23:21.062Z,17.12
2018-03-08T00:23:52.717Z,18.05
2018-03-08T00:24:24.368Z,18.42
2018-03-08T00:24:55.979Z,17.80
2018-03-08T00:25:27.610Z,18.23
2018-03-08T00:25:59.237Z,18.83
2018-03-08T00:26:30.872Z,18.23
2018-03-08T00:27:02.504Z,18.45
2018-03-08T00:27:34.121Z,18.80
2018-03-08T00:28:05.768Z,19.62
2018-03-08T00:28:37.400Z,20.05
2018-03-08T00:29:09.013Z,18.08
2018-03-08T00:29:40.630Z,17.77
2018-03-08T00:30:12.260Z,18.50
2018-03-08T00:30:43.912Z,19.17
2018-03-08T00:31:15.520Z,19.42
2018-03-08T00:31:47.171Z,19.02
2018-03-08T00:32:18.794Z,18.45
2018-03-08T00:32:50.410Z,19.55
2018-03-08T00:33:22.070Z,17.50
2018-03-08T00:33:53.687Z,17.80
2018-03-08T00:34:25.352Z,18.33
2018-03-08T00:34:56.989Z,18.12
2018-03-08T00:35:28.685Z,18.35
2018-03-08T00:36:00.300Z,18.15
2018-03-08T00:36:31.934Z,17.15
2018-03-08T00:37:03.574Z,18.08
2018-03-08T00:37:35.234Z,17.65
2018-03-08T00:38:06.896Z,17.35
2018-03-08T00:38:38.513Z,18.60
2018-03-08T00:39:10.127Z,18.15
2018-03-08T00:39:41.772Z,17.25
2018-03-08T00:40:13.416Z,18.20
2018-03-08T00:40:45.038Z,17.75
2018-03-08T00:41:16.683Z,17.75
2018-03-08T00:41:48.300Z,18.08
2018-03-08T00:42:19.950Z,17.35
2018-03-08T00:42:51.585Z,17.20
2018-03-08T00:43:23.231Z,18.37
2018-03-08T00:43:54.877Z,18.58
2018-03-08T00:44:26.517Z,16.95
2018-03-08T00:44:58.131Z,17.70
2018-03-08T00:45:29.739Z,17.87
2018-03-08T00:46:01.350Z,18.20
2018-03-08T00:46:32.979Z,17.65
2018-03-08T00:47:04.605Z,18.20
2018-03-08T00:47:36.242Z,18.30
2018-03-08T00:48:07.851Z,18.70
2018-03-08T00:48:39.476Z,17.85
2018-03-08T00:49:11.121Z,18.23
2018-03-08T00:49:42.754Z,17.42
2018-03-08T00:50:14.391Z,18.92
2018-03-08T00:50:46.008Z,17.35
2018-03-08T00:51:17.651Z,16.55
2018-03-08T00:51:49.281Z,18.20
2018-03-08T00:52:20.939Z,18.75
2018-03-08T00:52:52.584Z,17.92
2018-03-08T00:53:24.224Z,18.52
2018-03-08T00:53:55.873Z,17.55
2018-03-08T00:54:27.505Z,17.30
2018-03-08T00:54:59.151Z,17.80
2018-03-08T00:55:30.771Z,17.95
2018-03-08T00:56:02.381Z,19.00
2018-03-08T00:56:34.009Z,18.10
2018-03-08T00:57:05.651Z,19.55
2018-03-08T00:57:37.275Z,18.10
2018-03-08T00:58:08.900Z,17.62
2018-03-08T00:58:40.531Z,19.17
2018-03-08T00:59:12.176Z,19.35
2018-03-08T00:59:43.798Z,18.90
2018-03-08T01:00:15.459Z,18.67
2018-03-08T01:00:47.217Z,19.42
2018-03-08T01:01:18.830Z,18.25
2018-03-08T01:01:50.474Z,19.05
2018-03-08T01:02:22.111Z,19.58
2018-03-08T01:02:53.733Z,19.75
2018-03-08T01:03:25.363Z,19.40
2018-03-08T01:03:56.982Z,18.52
2018-03-08T01:04:28.615Z,18.17
2018-03-08T01:05:00.243Z,19.48
2018-03-08T01:05:31.887Z,20.62
2018-03-08T01:06:03.523Z,20.20
2018-03-08T01:06:35.176Z,19.23
2018-03-08T01:07:06.813Z,19.45
2018-03-08T01:07:38.450Z,19.27
2018-03-08T01:08:10.085Z,20.05
2018-03-08T01:08:41.691Z,18.77
2018-03-08T01:09:13.340Z,18.37
2018-03-08T01:09:44.964Z,18.00
2018-03-08T01:10:16.869Z,20.10
2018-03-08T01:10:48.498Z,19.90
2018-03-08T01:11:20.144Z,18.23
2018-03-08T01:11:51.772Z,17.33
2018-03-08T01:12:23.409Z,18.95
2018-03-08T01:12:55.046Z,17.73
2018-03-08T01:13:26.662Z,19.75
2018-03-08T01:13:58.292Z,18.60
2018-03-08T01:14:29.931Z,20.08
2018-03-08T01:15:01.560Z,18.23
2018-03-08T01:15:33.190Z,19.48
2018-03-08T01:16:04.810Z,19.95
2018-03-08T01:16:36.439Z,18.17
2018-03-08T01:17:08.091Z,18.33
2018-03-08T01:17:39.763Z,18.80
2018-03-08T01:18:11.396Z,19.15
2018-03-08T01:18:43.029Z,17.87
2018-03-08T01:19:14.672Z,18.73
2018-03-08T01:19:46.311Z,19.67
2018-03-08T01:20:17.941Z,18.05
2018-03-08T01:20:49.577Z,18.87
2018-03-08T01:21:21.217Z,19.95
2018-03-08T01:21:52.853Z,17.65
2018-03-08T01:22:24.526Z,18.98
2018-03-08T01:22:56.143Z,19.08
2018-03-08T01:23:27.805Z,18.27
2018-03-08T01:23:59.420Z,17.75
2018-03-08T01:24:31.073Z,17.33
2018-03-08T01:25:02.738Z,17.95
2018-03-08T01:25:34.373Z,18.12
2018-03-08T01:26:06.013Z,18.95
2018-03-08T01:26:37.651Z,18.25
2018-03-08T01:27:09.293Z,18.02
2018-03-08T01:27:40.930Z,18.37
2018-03-08T01:28:12.546Z,18.10
2018-03-08T01:28:44.179Z,16.67
2018-03-08T01:29:15.818Z,19.55
2018-03-08T01:29:47.469Z,19.20
2018-03-08T01:30:19.115Z,17.17
2018-03-08T01:30:50.745Z,18.45
2018-03-08T01:31:22.384Z,18.37
2018-03-08T01:31:54.009Z,18.00
2018-03-08T01:32:25.635Z,17.33
2018-03-08T01:32:57.264Z,20.30
2018-03-08T01:33:28.921Z,18.70
2018-03-08T01:34:00.574Z,18.75
2018-03-08T01:34:32.172Z,17.90
2018-03-08T01:35:03.841Z,17.62
2018-03-08T01:35:35.475Z,16.33
2018-03-08T01:36:25.778Z,17.20
2018-03-08T01:36:57.427Z,16.67
2018-03-08T01:37:29.066Z,16.83
2018-03-08T01:38:00.705Z,17.48
2018-03-08T01:38:32.337Z,16.87
2018-03-08T01:39:04.013Z,16.92
2018-03-08T01:39:35.669Z,17.73
2018-03-08T01:40:07.336Z,16.75
2018-03-08T01:40:38.940Z,17.75
2018-03-08T01:41:10.571Z,16.85
2018-03-08T01:41:42.202Z,17.33
2018-03-08T01:42:13.823Z,17.23
2018-03-08T01:42:45.479Z,16.45
2018-03-08T01:43:17.110Z,17.33
2018-03-08T01:43:48.743Z,16.77
2018-03-08T01:44:20.382Z,16.83
2018-03-08T01:44:52.058Z,16.60
2018-03-08T01:45:23.752Z,16.77
2018-03-08T01:45:55.403Z,16.67
2018-03-08T01:46:27.016Z,16.50
2018-03-08T01:46:58.687Z,16.65
2018-03-08T01:47:30.369Z,16.37
2018-03-08T01:48:02.026Z,16.08
2018-03-08T01:48:33.651Z,18.08
2018-03-08T01:49:05.264Z,16.12
2018-03-08T01:49:36.917Z,16.20
2018-03-08T01:50:08.565Z,16.85
2018-03-08T01:50:40.197Z,16.55
2018-03-08T01:51:11.819Z,16.05
2018-03-08T01:52:02.109Z,16.45
2018-03-08T01:52:33.751Z,15.32
2018-03-08T01:53:05.387Z,16.40
2018-03-08T01:53:36.999Z,16.48
2018-03-08T01:54:08.609Z,15.23
2018-03-08T01:54:40.264Z,15.63
2018-03-08T01:55:11.877Z,16.27
2018-03-08T01:55:43.501Z,15.80
2018-03-08T01:56:15.118Z,15.48
2018-03-08T01:56:46.751Z,15.52
2018-03-08T01:57:18.392Z,15.50
2018-03-08T01:57:50.045Z,15.88
2018-03-08T01:58:21.685Z,14.80
2018-03-08T01:58:53.323Z,15.35
2018-03-08T01:59:24.971Z,15.50
2018-03-08T01:59:56.622Z,14.63
2018-03-08T02:00:28.276Z,15.82
2018-03-08T02:00:59.906Z,16.05
2018-03-08T02:01:31.563Z,15.32
2018-03-08T02:02:03.210Z,15.55
2018-03-08T02:02:34.843Z,16.00
2018-03-08T02:03:06.455Z,16.00
2018-03-08T02:03:38.108Z,14.27
2018-03-08T02:04:09.741Z,14.93
2018-03-08T02:04:41.372Z,14.70
2018-03-08T02:05:13.008Z,15.68
2018-03-08T02:05:44.643Z,16.12
2018-03-08T02:06:16.289Z,15.13
2018-03-08T02:06:47.943Z,15.45
2018-03-08T02:07:19.600Z,15.48
2018-03-08T02:07:51.243Z,15.38
2018-03-08T02:08:22.886Z,14.20
2018-03-08T02:08:54.525Z,13.98
2018-03-08T02:09:26.165Z,14.87
2018-03-08T02:09:57.788Z,15.25
2018-03-08T02:10:29.445Z,15.13
2018-03-08T02:11:01.097Z,14.18
2018-03-08T02:11:32.725Z,14.27
2018-03-08T02:12:04.391Z,14.32
2018-03-08T02:12:36.041Z,14.63
2018-03-08T02:13:07.653Z,13.82
2018-03-08T02:13:39.269Z,14.48
2018-03-08T02:14:10.891Z,12.85
2018-03-08T02:14:42.525Z,13.60
2018-03-08T02:15:14.181Z,13.90
2018-03-08T02:15:45.823Z,14.35
2018-03-08T02:16:17.447Z,15.43
2018-03-08T02:16:49.069Z,14.10
2018-03-08T02:17:20.726Z,14.32
2018-03-08T02:17:52.457Z,14.07
2018-03-08T02:18:24.093Z,13.32
2018-03-08T02:18:55.726Z,12.50
2018-03-08T02:19:27.349Z,13.18
2018-03-08T02:19:58.977Z,13.70
2018-03-08T02:20:30.641Z,13.52
2018-03-08T02:21:02.276Z,12.65
2018-03-08T02:21:33.899Z,14.00
2018-03-08T02:22:05.544Z,14.10
2018-03-08T02:22:37.191Z,14.05
2018-03-08T02:23:08.834Z,13.70
2018-03-08T02:23:40.449Z,12.25
2018-03-08T02:24:12.101Z,12.50
2018-03-08T02:24:43.733Z,12.77
2018-03-08T02:25:15.375Z,12.70
2018-03-08T02:25:47.009Z,11.95
2018-03-08T02:26:18.661Z,13.40
2018-03-08T02:26:50.285Z,13.45
2018-03-08T02:27:21.923Z,12.50
2018-03-08T02:27:53.545Z,13.55
2018-03-08T02:28:25.173Z,13.25
2018-03-08T02:28:56.821Z,13.02
2018-03-08T02:29:28.427Z,12.07
2018-03-08T02:30:00.064Z,12.57
2018-03-08T02:30:31.692Z,12.55
2018-03-08T02:31:03.337Z,13.20
2018-03-08T02:31:34.982Z,12.37
2018-03-08T02:32:06.622Z,11.55
2018-03-08T02:32:38.251Z,11.10
2018-03-08T02:33:09.894Z,10.90
2018-03-08T02:33:41.526Z,13.25
2018-03-08T02:34:13.153Z,12.20
2018-03-08T02:34:44.799Z,11.77
2018-03-08T02:35:16.431Z,12.60
2018-03-08T02:35:48.074Z,12.57
2018-03-08T02:36:19.717Z,10.98
2018-03-08T02:36:51.371Z,11.18
2018-03-08T02:37:22.977Z,11.93
2018-03-08T02:37:54.595Z,12.80
2018-03-08T02:38:26.222Z,12.73
2018-03-08T02:38:57.864Z,11.27
2018-03-08T02:39:29.501Z,11.12
2018-03-08T02:40:01.140Z,10.73
2018-03-08T02:40:32.766Z,11.35
2018-03-08T02:41:04.409Z,11.65
2018-03-08T02:41:36.063Z,10.50
2018-03-08T02:42:07.755Z,11.52
2018-03-08T02:42:39.389Z,11.73
2018-03-08T02:43:11.050Z,10.95
2018-03-08T02:43:42.687Z,11.27
2018-03-08T02:44:14.370Z,9.93
2018-03-08T02:44:46.010Z,10.65
2018-03-08T02:45:17.681Z,10.25
2018-03-08T02:45:49.315Z,10.43
2018-03-08T02:46:20.935Z,9.90
2018-03-08T02:46:52.594Z,10.25
2018-03-08T02:47:24.246Z,9.93
2018-03-08T02:47:55.871Z,10.35
2018-03-08T02:48:27.504Z,9.18
2018-03-08T02:48:59.130Z,9.75
2018-03-08T02:49:30.774Z,8.95
2018-03-08T02:50:02.449Z,9.70
2018-03-08T02:50:34.101Z,9.80
2018-03-08T02:51:05.716Z,9.45
2018-03-08T02:51:37.363Z,10.10
2018-03-08T02:52:08.980Z,9.68
2018-03-08T02:52:40.621Z,9.10
2018-03-08T02:53:12.245Z,8.80
2018-03-08T02:53:43.889Z,10.07
2018-03-08T02:54:15.504Z,9.45
2018-03-08T02:54:47.117Z,10.18
2018-03-08T02:55:18.731Z,9.57
2018-03-08T02:55:50.358Z,8.70
2018-03-08T02:56:21.995Z,9.20
2018-03-08T02:56:53.658Z,9.05
2018-03-08T02:57:25.285Z,9.30
2018-03-08T02:57:56.944Z,9.35
2018-03-08T02:58:28.555Z,9.60
2018-03-08T02:59:00.167Z,7.97
2018-03-08T02:59:31.807Z,9.23
2018-03-08T03:00:03.487Z,9.20
2018-03-08T03:00:35.135Z,8.90
2018-03-08T03:01:06.807Z,8.98
2018-03-08T03:01:38.439Z,8.70
2018-03-08T03:02:10.408Z,8.45
2018-03-08T03:02:42.046Z,9.02
2018-03-08T03:03:13.693Z,8.38
2018-03-08T03:03:45.320Z,8.65
2018-03-08T03:04:16.957Z,8.88
2018-03-08T03:04:48.577Z,7.75
2018-03-08T03:05:20.216Z,7.90
2018-03-08T03:05:51.864Z,8.13
2018-03-08T03:06:23.491Z,8.88
2018-03-08T03:06:55.105Z,9.13
2018-03-08T03:07:26.732Z,7.93
2018-03-08T03:07:58.367Z,8.32
2018-03-08T03:08:30.009Z,8.32
2018-03-08T03:09:01.657Z,8.00
2018-03-08T03:09:33.309Z,8.18
2018-03-08T03:10:04.972Z,8.50
2018-03-08T03:10:36.643Z,8.43
2018-03-08T03:11:08.261Z,8.48
2018-03-08T03:11:39.876Z,8.45
2018-03-08T03:12:11.517Z,8.88
2018-03-08T03:12:43.127Z,8.10
2018-03-08T03:13:14.768Z,8.13
2018-03-08T03:13:46.428Z,8.70
2018-03-08T03:14:18.133Z,8.75
2018-03-08T03:14:49.789Z,8.65
2018-03-08T03:15:21.426Z,8.82
2018-03-08T03:15:53.061Z,7.40
2018-03-08T03:16:24.701Z,7.72
2018-03-08T03:16:56.319Z,8.02
2018-03-08T03:17:27.946Z,8.70
2018-03-08T03:18:00.501Z,8.38
2018-03-08T03:18:32.131Z,8.60
2018-03-08T03:19:03.801Z,7.93
2018-03-08T03:19:35.459Z,8.25
2018-03-08T03:20:07.093Z,7.90
2018-03-08T03:20:38.753Z,8.02
2018-03-08T03:21:10.384Z,8.10
2018-03-08T03:21:42.015Z,7.55
2018-03-08T03:22:13.635Z,8.18
2018-03-08T03:22:45.249Z,7.72
2018-03-08T03:23:16.849Z,7.97
2018-03-08T03:23:48.469Z,8.15
2018-03-08T03:24:20.105Z,7.87
2018-03-08T03:24:51.713Z,7.82
2018-03-08T03:25:23.351Z,7.47
2018-03-08T03:25:54.977Z,7.22
2018-03-08T03:26:26.603Z,7.40
2018-03-08T03:26:58.251Z,7.32
2018-03-08T03:27:29.871Z,6.72
2018-03-08T03:28:01.491Z,6.93
2018-03-08T03:28:33.125Z,6.65
2018-03-08T03:29:04.735Z,7.43
2018-03-08T03:29:36.395Z,6.80
2018-03-08T03:30:08.035Z,7.40
2018-03-08T03:30:39.692Z,6.75
2018-03-08T03:31:11.329Z,6.70
2018-03-08T03:31:42.950Z,7.10
2018-03-08T03:32:14.570Z,6.25
2018-03-08T03:32:46.189Z,6.93
2018-03-08T03:33:17.821Z,6.50
2018-03-08T03:33:49.449Z,5.90
2018-03-08T03:34:21.104Z,6.20
2018-03-08T03:34:52.743Z,5.82
2018-03-08T03:35:24.394Z,6.30
2018-03-08T03:35:56.027Z,6.15
2018-03-08T03:36:27.657Z,5.55
2018-03-08T03:36:59.251Z,6.30
2018-03-08T03:37:30.873Z,6.75
2018-03-08T03:38:02.528Z,6.72
2018-03-08T03:38:34.167Z,5.47
2018-03-08T03:39:05.807Z,6.43
2018-03-08T03:39:37.455Z,5.80
2018-03-08T03:40:09.077Z,6.47
2018-03-08T03:40:40.700Z,6.25
2018-03-08T03:41:12.325Z,6.40
2018-03-08T03:41:43.963Z,6.43
2018-03-08T03:42:15.589Z,5.37
2018-03-08T03:42:47.259Z,5.20
2018-03-08T03:43:18.871Z,5.57
2018-03-08T03:43:50.481Z,6.03
2018-03-08T03:44:22.105Z,5.80
2018-03-08T03:44:53.745Z,5.78
2018-03-08T03:45:25.388Z,5.37
2018-03-08T03:45:57.029Z,5.55
2018-03-08T03:46:28.654Z,5.72
2018-03-08T03:47:00.307Z,4.70
2018-03-08T03:47:31.957Z,5.57
2018-03-08T03:48:03.596Z,6.00
2018-03-08T03:48:35.237Z,5.30
2018-03-08T03:49:06.847Z,5.25
2018-03-08T03:49:38.506Z,5.72
2018-03-08T03:50:10.145Z,5.50
2018-03-08T03:50:41.789Z,5.15
2018-03-08T03:51:13.429Z,5.78
2018-03-08T03:51:45.060Z,5.03
2018-03-08T03:52:16.689Z,5.70
2018-03-08T03:52:48.329Z,5.07
2018-03-08T03:53:19.966Z,4.95
2018-03-08T03:53:51.601Z,5.45
2018-03-08T03:54:23.214Z,4.85
2018-03-08T03:54:54.859Z,5.00
2018-03-08T03:55:26.485Z,4.75
2018-03-08T03:55:58.137Z,4.60
2018-03-08T03:56:29.762Z,6.18
2018-03-08T03:57:01.385Z,4.53
2018-03-08T03:57:33.049Z,5.55
2018-03-08T03:58:04.666Z,5.55
2018-03-08T03:58:36.297Z,4.28
2018-03-08T03:59:07.913Z,5.75
2018-03-08T03:59:39.563Z,4.90
2018-03-08T04:00:11.199Z,5.20
2018-03-08T04:00:42.833Z,5.32
2018-03-08T04:01:14.474Z,4.78
2018-03-08T04:01:46.101Z,5.37
2018-03-08T04:02:17.727Z,5.30
2018-03-08T04:02:49.345Z,4.78
2018-03-08T04:03:20.970Z,4.85
2018-03-08T04:03:52.585Z,4.75
2018-03-08T04:04:24.215Z,5.15
2018-03-08T04:04:55.849Z,4.95
2018-03-08T04:05:27.517Z,5.20
2018-03-08T04:05:59.136Z,5.10
2018-03-08T04:06:30.769Z,4.85
2018-03-08T04:07:02.423Z,5.72
2018-03-08T04:07:34.029Z,5.18
2018-03-08T04:08:05.664Z,5.30
2018-03-08T04:08:37.292Z,5.28
2018-03-08T04:09:08.935Z,4.62
2018-03-08T04:09:40.563Z,4.85
2018-03-08T04:10:12.201Z,5.28
2018-03-08T04:10:43.835Z,4.85
2018-03-08T04:11:15.497Z,5.07
2018-03-08T04:11:47.139Z,4.85
2018-03-08T04:12:18.768Z,5.22
2018-03-08T04:12:50.375Z,5.03
2018-03-08T04:13:21.985Z,5.20
2018-03-08T04:13:53.633Z,4.72
2018-03-08T04:14:25.253Z,4.03
2018-03-08T04:14:56.897Z,4.18
2018-03-08T04:15:28.531Z,5.12
2018-03-08T04:16:00.155Z,4.43
2018-03-08T04:16:31.800Z,5.10
2018-03-08T04:17:03.470Z,4.65
2018-03-08T04:17:35.102Z,4.50
2018-03-08T04:18:06.708Z,4.00
2018-03-08T04:18:42.249Z,4.97
2018-03-08T04:19:13.883Z,4.97
2018-03-08T04:19:45.507Z,4.95
2018-03-08T04:20:17.171Z,4.57
2018-03-08T04:20:48.813Z,4.15
2018-03-08T04:21:20.473Z,4.53
2018-03-08T04:21:52.113Z,4.53
2018-03-08T04:22:23.785Z,4.85
2018-03-08T04:22:55.423Z,5.12
2018-03-08T04:23:27.058Z,5.18
2018-03-08T04:23:58.713Z,5.15
2018-03-08T04:24:30.329Z,5.32
2018-03-08T04:25:01.969Z,4.47
2018-03-08T04:25:33.608Z,4.93
2018-03-08T04:26:05.254Z,4.22
2018-03-08T04:26:36.909Z,5.35
2018-03-08T04:27:08.537Z,3.85
2018-03-08T04:27:40.171Z,4.72
2018-03-08T04:28:11.796Z,4.82
2018-03-08T04:28:43.519Z,3.92
2018-03-08T04:29:15.137Z,4.37
2018-03-08T04:29:46.750Z,5.12
2018-03-08T04:30:18.367Z,4.20
2018-03-08T04:30:49.984Z,4.18
2018-03-08T04:31:21.633Z,4.00
2018-03-08T04:31:53.257Z,4.53
2018-03-08T04:32:24.907Z,5.50
2018-03-08T04:32:56.554Z,4.72
2018-03-08T04:33:28.213Z,6.25
2018-03-08T04:33:59.837Z,4.80
2018-03-08T04:34:31.453Z,4.18
2018-03-08T04:35:03.105Z,5.80
2018-03-08T04:35:34.761Z,4.18
2018-03-08T04:36:06.378Z,4.85
2018-03-08T04:36:38.013Z,4.65
2018-03-08T04:37:09.639Z,4.35
2018-03-08T04:37:41.269Z,5.72
2018-03-08T04:38:12.917Z,4.47
2018-03-08T04:38:44.532Z,4.93
2018-03-08T04:39:16.161Z,5.00
2018-03-08T04:39:47.768Z,5.00
2018-03-08T04:40:19.401Z,5.03
2018-03-08T04:40:51.038Z,5.85
2018-03-08T04:41:22.657Z,5.97
2018-03-08T04:41:54.280Z,5.80
2018-03-08T04:42:25.907Z,7.60
2018-03-08T04:42:57.551Z,6.00
2018-03-08T04:43:29.183Z,7.03
2018-03-08T04:44:00.793Z,7.93
2018-03-08T04:44:32.437Z,7.62
2018-03-08T04:45:04.069Z,7.22
2018-03-08T04:45:35.713Z,7.97
2018-03-08T04:46:07.331Z,7.28
2018-03-08T04:46:38.985Z,8.05
2018-03-08T04:47:10.933Z,7.75
2018-03-08T04:47:42.561Z,7.15
2018-03-08T04:48:14.203Z,7.45
2018-03-08T04:48:45.850Z,8.25
2018-03-08T04:49:17.462Z,8.52
2018-03-08T04:49:49.093Z,7.78
2018-03-08T04:50:20.722Z,8.95
2018-03-08T04:50:52.348Z,8.60
2018-03-08T04:51:23.964Z,7.95
2018-03-08T04:51:55.597Z,9.55
2018-03-08T04:52:27.515Z,7.95
2018-03-08T04:52:59.154Z,8.15
2018-03-08T04:53:30.801Z,8.85
2018-03-08T04:54:02.447Z,8.70
2018-03-08T04:54:34.075Z,9.48
2018-03-08T04:55:05.712Z,8.50
2018-03-08T04:55:37.347Z,9.07
2018-03-08T04:56:08.984Z,9.93
2018-03-08T04:56:40.631Z,8.70
2018-03-08T04:57:12.251Z,8.73
2018-03-08T04:57:43.881Z,10.10
2018-03-08T04:58:15.493Z,9.13
2018-03-08T04:58:47.104Z,8.55
2018-03-08T04:59:18.739Z,9.55
2018-03-08T04:59:50.392Z,8.65
2018-03-08T05:00:22.008Z,8.60
2018-03-08T05:00:53.625Z,8.82
2018-03-08T05:01:25.270Z,10.02
2018-03-08T05:01:56.933Z,9.27
2018-03-08T05:02:28.570Z,9.95
2018-03-08T05:03:00.210Z,11.12
2018-03-08T05:03:31.835Z,10.27
2018-03-08T05:04:03.477Z,10.30
2018-03-08T05:04:35.115Z,9.77
2018-03-08T05:05:06.738Z,9.75
2018-03-08T05:05:38.388Z,9.95
2018-03-08T05:06:10.019Z,10.75
2018-03-08T05:06:41.663Z,9.30
2018-03-08T05:07:13.311Z,9.40
2018-03-08T05:07:44.937Z,9.23
2018-03-08T05:08:16.587Z,9.93
2018-03-08T05:08:48.224Z,9.73
2018-03-08T05:09:19.876Z,9.27
2018-03-08T05:09:51.534Z,10.23
2018-03-08T05:10:23.189Z,11.15
2018-03-08T05:10:54.826Z,10.98
2018-03-08T05:11:26.494Z,10.20
2018-03-08T05:11:58.131Z,10.45
2018-03-08T05:12:29.791Z,10.95
2018-03-08T05:13:01.437Z,10.60
2018-03-08T05:13:33.089Z,11.05
2018-03-08T05:14:04.709Z,10.40
2018-03-08T05:14:36.363Z,8.77
2018-03-08T05:15:08.029Z,10.60
2018-03-08T05:15:39.649Z,9.50
2018-03-08T05:16:11.253Z,9.68
2018-03-08T05:16:42.877Z,8.88
2018-03-08T05:17:14.528Z,10.05
2018-03-08T05:17:46.145Z,10.82
2018-03-08T05:18:17.781Z,12.27
2018-03-08T05:18:49.435Z,12.40
2018-03-08T05:19:21.059Z,12.05
2018-03-08T05:19:52.685Z,10.88
2018-03-08T05:20:24.309Z,10.45
2018-03-08T05:20:55.964Z,10.73
2018-03-08T05:21:27.589Z,10.75
2018-03-08T05:21:59.260Z,11.40
2018-03-08T05:22:30.895Z,10.80
2018-03-08T05:23:02.551Z,10.45
2018-03-08T05:23:34.170Z,10.75
2018-03-08T05:24:05.810Z,10.55
2018-03-08T05:24:37.462Z,11.02
2018-03-08T05:25:09.078Z,11.07
2018-03-08T05:25:40.739Z,10.23
2018-03-08T05:26:12.385Z,11.68
2018-03-08T05:26:44.029Z,10.64
2018-03-08T05:27:15.657Z,10.60
2018-03-08T05:27:47.272Z,10.55
2018-03-08T05:28:18.915Z,10.18
2018-03-08T05:28:50.533Z,11.63
2018-03-08T05:29:22.165Z,10.95
2018-03-08T05:29:53.806Z,10.68
2018-03-08T05:30:25.439Z,11.32
2018-03-08T05:30:57.086Z,10.63
2018-03-08T05:31:28.731Z,11.23
2018-03-08T05:32:00.362Z,9.90
2018-03-08T05:32:31.981Z,11.82
2018-03-08T05:33:03.613Z,10.18
2018-03-08T05:33:35.241Z,10.57
2018-03-08T05:34:06.932Z,9.07
2018-03-08T05:34:38.570Z,10.25
2018-03-08T05:35:10.186Z,9.73
2018-03-08T05:35:41.823Z,10.90
2018-03-08T05:36:13.512Z,9.55
2018-03-08T05:36:45.137Z,9.23
2018-03-08T05:37:16.771Z,8.88
2018-03-08T05:37:48.415Z,8.98
2018-03-08T05:38:20.044Z,9.75
2018-03-08T05:38:51.661Z,9.23
2018-03-08T05:39:23.283Z,8.25
2018-03-08T05:39:54.913Z,9.00
2018-03-08T05:40:26.517Z,8.25
2018-03-08T05:40:58.144Z,8.45
2018-03-08T05:41:29.792Z,7.20
2018-03-08T05:42:01.407Z,8.45
2018-03-08T05:42:33.016Z,8.57
2018-03-08T05:43:04.647Z,7.82
2018-03-08T05:43:36.258Z,8.70
2018-03-08T05:44:07.883Z,8.40
2018-03-08T05:44:39.492Z,8.48
2018-03-08T05:45:11.111Z,8.90
2018-03-08T05:45:42.725Z,9.02
2018-03-08T05:46:14.342Z,8.27
2018-03-08T05:46:45.966Z,9.63
2018-03-08T05:47:17.577Z,8.93
2018-03-08T05:47:49.225Z,9.63
2018-03-08T05:48:20.844Z,9.35
2018-03-08T05:48:52.475Z,8.63
2018-03-08T05:49:24.101Z,8.93
2018-03-08T05:49:55.711Z,9.38
2018-03-08T05:50:27.360Z,9.18
2018-03-08T05:50:58.985Z,9.10
2018-03-08T05:51:30.619Z,8.85
2018-03-08T05:52:02.285Z,8.88
2018-03-08T05:52:33.918Z,9.18
2018-03-08T05:53:05.516Z,10.70
2018-03-08T05:53:37.152Z,9.38
2018-03-08T05:54:08.761Z,9.80
2018-03-08T05:54:40.407Z,9.50
2018-03-08T05:55:12.047Z,10.20
2018-03-08T05:55:43.668Z,9.63
2018-03-08T05:56:15.297Z,9.63
2018-03-08T05:56:46.951Z,9.60
2018-03-08T05:57:18.613Z,9.93
2018-03-08T05:57:50.259Z,10.35
2018-03-08T05:58:21.909Z,8.90
2018-03-08T05:58:53.529Z,9.85
2018-03-08T05:59:25.141Z,9.52
2018-03-08T05:59:56.773Z,9.35
2018-03-08T06:00:28.427Z,10.02
2018-03-08T06:01:00.035Z,9.25
2018-03-08T06:01:31.648Z,9.40
2018-03-08T06:02:03.270Z,9.90
2018-03-08T06:02:34.923Z,9.85
2018-03-08T06:03:06.553Z,9.48
2018-03-08T06:03:38.204Z,10.30
2018-03-08T06:04:09.873Z,10.80
2018-03-08T06:04:41.560Z,10.38
2018-03-08T06:05:13.186Z,10.38
2018-03-08T06:05:44.829Z,10.38
2018-03-08T06:06:16.458Z,10.85
2018-03-08T06:06:48.056Z,11.45
2018-03-08T06:07:19.681Z,11.90
2018-03-08T06:07:51.337Z,11.10
2018-03-08T06:08:22.957Z,10.63
2018-03-08T06:08:54.573Z,12.30
2018-03-08T06:09:26.184Z,11.00
2018-03-08T06:09:57.843Z,11.52
2018-03-08T06:10:29.475Z,11.88
2018-03-08T06:11:01.085Z,10.75
2018-03-08T06:11:32.707Z,12.13
2018-03-08T06:12:04.363Z,11.57
2018-03-08T06:12:35.997Z,11.85
2018-03-08T06:13:07.651Z,13.02
2018-03-08T06:13:39.288Z,12.05
2018-03-08T06:14:10.914Z,13.15
2018-03-08T06:14:42.534Z,13.25
2018-03-08T06:15:14.190Z,13.27
2018-03-08T06:15:45.821Z,13.18
2018-03-08T06:16:17.468Z,12.50
2018-03-08T06:16:49.101Z,12.82
2018-03-08T06:17:20.732Z,13.85
2018-03-08T06:17:52.393Z,14.90
2018-03-08T06:18:24.027Z,14.35
2018-03-08T06:18:55.641Z,14.93
2018-03-08T06:19:27.256Z,14.18
2018-03-08T06:19:58.870Z,14.52
2018-03-08T06:20:30.522Z,16.73
2018-03-08T06:21:02.137Z,15.52
2018-03-08T06:21:33.758Z,16.08
2018-03-08T06:22:05.386Z,15.57
2018-03-08T06:22:36.997Z,16.77
2018-03-08T06:23:08.634Z,16.45
2018-03-08T06:23:40.274Z,15.38
2018-03-08T06:24:11.914Z,16.15
2018-03-08T06:24:43.543Z,17.02
2018-03-08T06:25:15.168Z,15.57
2018-03-08T06:25:46.788Z,16.30
2018-03-08T06:26:18.426Z,15.63
2018-03-08T06:26:50.058Z,14.05
2018-03-08T06:27:21.685Z,15.23
2018-03-08T06:27:53.309Z,16.45
2018-03-08T06:28:24.961Z,15.27
2018-03-08T06:28:56.607Z,16.48
2018-03-08T06:29:28.246Z,17.42
2018-03-08T06:29:59.876Z,15.80
2018-03-08T06:30:31.522Z,16.35
2018-03-08T06:31:03.157Z,15.15
2018-03-08T06:31:34.806Z,14.73
2018-03-08T06:32:06.445Z,15.75
2018-03-08T06:32:38.069Z,14.75
2018-03-08T06:33:09.708Z,15.30
2018-03-08T06:33:41.344Z,16.00
2018-03-08T06:34:12.984Z,14.98
2018-03-08T06:34:44.602Z,14.85
2018-03-08T06:35:16.226Z,14.63
2018-03-08T06:35:47.862Z,14.80
2018-03-08T06:36:19.488Z,15.38
2018-03-08T06:36:51.132Z,15.65
2018-03-08T06:37:22.761Z,15.90
2018-03-08T06:37:54.408Z,15.48
2018-03-08T06:38:26.174Z,15.32
2018-03-08T06:38:57.851Z,15.27
2018-03-08T06:39:29.457Z,14.90
2018-03-08T06:40:01.098Z,14.00
2018-03-08T06:40:32.733Z,14.50
2018-03-08T06:41:04.375Z,14.82
2018-03-08T06:41:36.005Z,14.52
2018-03-08T06:42:07.637Z,14.40
2018-03-08T06:42:39.259Z,13.23
2018-03-08T06:43:10.885Z,13.80
2018-03-08T06:43:42.519Z,13.25
2018-03-08T06:44:14.173Z,14.32
2018-03-08T06:44:45.841Z,13.50
2018-03-08T06:45:17.438Z,14.18
2018-03-08T06:45:49.078Z,14.57
2018-03-08T06:46:20.702Z,13.43
2018-03-08T06:46:52.343Z,13.80
2018-03-08T06:47:23.979Z,12.15
2018-03-08T06:47:55.641Z,12.98
2018-03-08T06:48:27.252Z,13.02
2018-03-08T06:48:58.868Z,13.43
2018-03-08T06:49:30.506Z,12.90
2018-03-08T06:50:02.154Z,12.13
2018-03-08T06:50:33.774Z,12.98
2018-03-08T06:51:05.409Z,12.65
2018-03-08T06:51:37.057Z,12.32
2018-03-08T06:52:08.687Z,12.25
2018-03-08T06:52:40.342Z,12.63
2018-03-08T06:53:11.987Z,11.48